Time;durP1;ratioP1;P1;durP2;ratioP2;P2;SDS_P1;SDS_P2;PMS_P1;PMS_P2;Temp;Humidity;BMP_temperature;BMP_pressure;BME280_temperature;BME280_humidity;BME280_pressure;Samples;Min_cycle;Max_cycle;Signal;HPM_P1;HPM_P2
2023/12/01 00:12:02;;;;;;;;;;;;;;;-2.41;100.00;100041.88;6216668;23;19924;-75
2023/12/01 00:19:52;;;;;;;;;;;;;;;-2.34;100.00;100048.31;6203992;23;19912;-76
2023/12/01 00:22:27;;;;;;;;;;;;;;;-2.37;100.00;100053.00;6217499;23;19920;-75
2023/12/01 00:24:52;;;;;;;;;;;;;;;-2.33;100.00;100055.25;6215358;23;19912;-75
2023/12/01 00:27:18;;;;;;;;;;;;;;;-2.33;100.00;100052.63;6214469;23;20377;-75
2023/12/01 00:29:49;;;;;;;;;;;;;;;-2.30;100.00;100054.13;6216160;23;19974;-75
2023/12/01 00:32:14;;;;;;;;;;;;;;;-2.35;100.00;100049.28;6214716;23;19932;-75
2023/12/01 00:34:40;;;;;;;;;;;;;;;-2.36;100.00;100050.25;6215063;23;19992;-75
2023/12/01 00:37:05;;;;;;;;;;;;;;;-2.32;100.00;100056.91;6213848;23;19920;-75
2023/12/01 00:39:30;;;;;;;;;;;;;;;-2.29;100.00;100055.81;6216107;23;19916;-74
2023/12/01 00:41:56;;;;;;;;;;;;;;;-2.28;100.00;100058.31;6214820;23;19912;-74
2023/12/01 00:44:21;;;;;;;;;;;;;;;-2.28;100.00;100060.94;6213931;23;19916;-74
2023/12/01 00:46:48;;;;;;;;;;;;;;;-2.26;100.00;100059.97;6215652;23;19912;-75
2023/12/01 00:49:13;;;;;;;;;;;;;;;-2.24;100.00;100068.59;6215766;23;19970;-75
2023/12/01 00:51:41;;;;;;;;;;;;;;;-2.23;100.00;100064.97;6217871;23;19916;-75
2023/12/01 00:54:07;;;;;;;;;;;;;;;-2.22;100.00;100071.94;6215413;23;19912;-75
2023/12/01 00:56:32;;;;;;;;;;;;;;;-2.23;100.00;100080.81;6192409;23;19923;-75
2023/12/01 00:58:57;;;;;;;;;;;;;;;-2.20;100.00;100075.28;6216185;23;19951;-75
2023/12/01 01:01:23;;;;;;;;;;;;;;;-2.18;100.00;100073.34;6215260;23;19916;-75
2023/12/01 01:03:48;;;;;;;;;;;;;;;-2.14;100.00;100074.75;6216855;23;19912;-75
2023/12/01 01:06:13;;;;;;;;;;;;;;;-2.13;100.00;100076.41;6214005;23;20305;-75
2023/12/01 01:08:41;;;;;;;;;;;;;;;-2.14;100.00;100075.56;6214894;23;20249;-75
2023/12/01 01:11:06;;;;;;;;;;;;;;;-2.13;100.00;100087.78;6215873;23;19912;-75
2023/12/01 01:13:35;;;;;;;;;;;;;;;-2.10;100.00;100081.41;6216692;23;20277;-75
2023/12/01 01:16:03;;;;;;;;;;;;;;;-2.10;100.00;100086.66;6189845;23;19915;-76
2023/12/01 01:18:28;;;;;;;;;;;;;;;-2.09;100.00;100082.25;6216565;23;19912;-75
2023/12/01 01:20:53;;;;;;;;;;;;;;;-2.08;100.00;100074.19;6216812;23;19923;-76
2023/12/01 01:23:19;;;;;;;;;;;;;;;-2.10;100.00;100081.41;6217064;23;19912;-75
2023/12/01 01:25:44;;;;;;;;;;;;;;;-2.08;100.00;100094.47;6217759;23;19927;-75
2023/12/01 01:28:09;;;;;;;;;;;;;;;-2.04;100.00;100091.41;6216909;23;19912;-75
2023/12/01 01:30:35;;;;;;;;;;;;;;;-2.07;100.00;100090.88;6217780;23;20377;-75
2023/12/01 01:33:00;;;;;;;;;;;;;;;-2.09;100.00;100093.63;6217966;23;19919;-76
2023/12/01 01:35:25;;;;;;;;;;;;;;;-2.08;100.00;100092.66;6217055;23;19955;-75
2023/12/01 01:37:51;;;;;;;;;;;;;;;-2.06;100.00;100097.81;6216695;23;19927;-75
2023/12/01 01:40:16;;;;;;;;;;;;;;;-2.02;100.00;100102.69;6217318;23;19959;-75
2023/12/01 01:42:41;;;;;;;;;;;;;;;-1.99;100.00;100097.13;6217618;23;20248;-75
2023/12/01 01:45:06;;;;;;;;;;;;;;;-1.99;100.00;100107.69;6217239;23;20224;-76
2023/12/01 01:47:32;;;;;;;;;;;;;;;-2.02;100.00;100100.03;6218662;23;19916;-75
2023/12/01 01:49:57;;;;;;;;;;;;;;;-1.98;100.00;100103.22;6218084;23;19911;-76
2023/12/01 01:52:25;;;;;;;;;;;;;;;-1.99;100.00;100105.06;6217955;23;20386;-75
2023/12/01 01:54:50;;;;;;;;;;;;;;;-2.01;100.00;100106.97;6194214;23;20237;-75
2023/12/01 01:57:15;;;;;;;;;;;;;;;-2.02;100.00;100102.69;6208662;23;19936;-75
2023/12/01 01:59:42;;;;;;;;;;;;;;;-2.03;100.00;100103.66;6236363;23;19915;-75
2023/12/01 02:02:07;;;;;;;;;;;;;;;-2.06;100.00;100109.19;6221080;23;19912;-75
2023/12/01 02:04:33;;;;;;;;;;;;;;;-2.06;100.00;100108.34;6217225;23;20350;-75
2023/12/01 02:06:58;;;;;;;;;;;;;;;-2.07;100.00;100106.69;6190183;23;20395;-75
2023/12/01 02:09:23;;;;;;;;;;;;;;;-2.03;100.00;100108.91;6217655;23;20317;-75
2023/12/01 02:11:48;;;;;;;;;;;;;;;-2.02;100.00;100118.50;6218415;23;19912;-76
2023/12/01 02:14:14;;;;;;;;;;;;;;;-2.05;100.00;100108.22;6217238;23;19990;-75
2023/12/01 02:16:45;;;;;;;;;;;;;;;-2.03;100.00;100111.56;6216731;23;19922;-75
2023/12/01 02:19:11;;;;;;;;;;;;;;;-2.01;100.00;100106.97;6217652;23;19995;-75
2023/12/01 02:21:43;;;;;;;;;;;;;;;-1.98;100.00;100106.72;6216406;23;19947;-75
2023/12/01 02:24:09;;;;;;;;;;;;;;;-1.98;100.00;100106.72;6227366;23;19916;-74
2023/12/01 02:26:34;;;;;;;;;;;;;;;-1.99;100.00;100114.75;6238494;23;19919;-75
2023/12/01 02:29:00;;;;;;;;;;;;;;;-1.94;100.00;100111.72;6220719;23;19948;-76
2023/12/01 02:31:26;;;;;;;;;;;;;;;-1.98;100.00;100106.72;6194221;23;19912;-75
2023/12/01 02:33:53;;;;;;;;;;;;;;;-2.01;100.00;100106.97;6217155;23;19916;-75
2023/12/01 02:36:19;;;;;;;;;;;;;;;-2.00;100.00;100113.94;6215515;23;19923;-75
2023/12/01 02:38:44;;;;;;;;;;;;;;;-1.99;100.00;100109.47;6216607;23;19912;-75
2023/12/01 02:41:10;;;;;;;;;;;;;;;-1.98;100.00;100121.69;6216493;23;19912;-75
2023/12/01 02:43:35;;;;;;;;;;;;;;;-1.93;100.00;100111.59;6214750;23;19912;-75
2023/12/01 02:46:00;;;;;;;;;;;;;;;-1.93;100.00;100108.09;6217325;23;20283;-76
2023/12/01 02:48:25;;;;;;;;;;;;;;;-1.96;100.00;100111.03;6191180;23;20001;-75
2023/12/01 02:50:51;;;;;;;;;;;;;;;-1.99;100.00;100109.47;6217674;23;19967;-75
2023/12/01 02:53:16;;;;;;;;;;;;;;;-2.00;100.00;100110.44;6219110;23;19924;-77
2023/12/01 02:55:42;;;;;;;;;;;;;;;-2.01;100.00;100109.63;6220647;23;19919;-75
2023/12/01 02:58:08;;;;;;;;;;;;;;;-1.98;100.00;100109.34;6219738;23;19994;-74
2023/12/01 03:00:33;;;;;;;;;;;;;;;-1.94;100.00;100109.91;6219047;23;19912;-75
2023/12/01 03:02:59;;;;;;;;;;;;;;;-1.92;100.00;100115.91;6218796;23;19927;-74
2023/12/01 03:05:24;;;;;;;;;;;;;;;-1.96;100.00;100113.66;6217062;23;20206;-74
2023/12/01 03:07:50;;;;;;;;;;;;;;;-1.93;100.00;100110.75;6217824;23;19912;-75
2023/12/01 03:10:15;;;;;;;;;;;;;;;-1.90;100.00;100113.13;6220172;23;19912;-75
2023/12/01 03:12:41;;;;;;;;;;;;;;;-1.87;100.00;100112.84;6218065;23;20003;-75
2023/12/01 03:15:19;;;;;;;;;;;;;;;-1.88;100.00;100106.75;6194357;23;20411;-76
2023/12/01 03:17:47;;;;;;;;;;;;;;;-1.89;100.00;100117.41;6220892;23;19918;-75
2023/12/01 03:20:14;;;;;;;;;;;;;;;-1.87;100.00;100118.97;6227890;23;19915;-76
2023/12/01 03:22:40;;;;;;;;;;;;;;;-1.80;100.00;100114.00;6234559;23;19923;-75
2023/12/01 03:25:09;;;;;;;;;;;;;;;-1.87;100.00;100120.75;6224340;23;19911;-75
2023/12/01 03:27:35;;;;;;;;;;;;;;;-1.90;100.00;100118.38;6219283;23;19919;-76
2023/12/01 03:30:13;;;;;;;;;;;;;;;-1.89;100.00;100109.50;6216711;23;20341;-76
2023/12/01 03:32:48;;;;;;;;;;;;;;;-1.85;100.00;100116.19;6216282;23;19919;-76
2023/12/01 03:35:14;;;;;;;;;;;;;;;-1.84;100.00;100117.88;6215498;23;19915;-75
2023/12/01 03:37:40;;;;;;;;;;;;;;;-1.87;100.00;100116.34;6216655;23;19935;-76
2023/12/01 03:40:08;;;;;;;;;;;;;;;-1.89;100.00;100120.06;6217100;23;19908;-75
2023/12/01 03:42:33;;;;;;;;;;;;;;;-1.90;100.00;100119.25;6189940;23;19923;-76
2023/12/01 03:44:58;;;;;;;;;;;;;;;-1.90;100.00;100118.38;6214589;23;19916;-76
2023/12/01 03:47:23;;;;;;;;;;;;;;;-1.94;100.00;100123.09;6215289;23;19952;-76
2023/12/01 03:49:50;;;;;;;;;;;;;;;-1.96;100.00;100127.69;6214915;23;19991;-76
2023/12/01 03:52:15;;;;;;;;;;;;;;;-2.00;100.00;100137.66;6213654;23;19916;-76
2023/12/01 03:54:40;;;;;;;;;;;;;;;-2.02;100.00;100139.59;6214444;23;19919;-76
2023/12/01 03:57:05;;;;;;;;;;;;;;;-2.05;100.00;100145.13;6213476;23;19916;-76
2023/12/01 03:59:31;;;;;;;;;;;;;;;-2.11;100.00;100137.75;6214691;23;19951;-76
2023/12/01 04:01:56;;;;;;;;;;;;;;;-2.13;100.00;100135.25;6214276;23;19919;-76
2023/12/01 04:04:21;;;;;;;;;;;;;;;-2.16;100.00;100139.97;6212800;23;19946;-76
2023/12/01 04:06:46;;;;;;;;;;;;;;;-2.16;100.00;100140.78;6214497;23;19936;-76
2023/12/01 04:09:12;;;;;;;;;;;;;;;-2.12;100.00;100138.75;6214287;23;19938;-76
2023/12/01 04:11:38;;;;;;;;;;;;;;;-2.11;100.00;100143.00;6214247;23;19938;-76
2023/12/01 04:14:05;;;;;;;;;;;;;;;-2.08;100.00;100145.41;6214081;23;19911;-76
2023/12/01 04:16:31;;;;;;;;;;;;;;;-2.06;100.00;100146.09;6214542;23;19912;-76
2023/12/01 04:18:59;;;;;;;;;;;;;;;-2.09;100.00;100146.34;6214548;23;19914;-76
2023/12/01 04:21:24;;;;;;;;;;;;;;;-2.05;100.00;100141.69;6213590;23;19949;-76
2023/12/01 04:23:52;;;;;;;;;;;;;;;-2.10;100.00;100144.69;6215450;23;19912;-76
2023/12/01 04:26:17;;;;;;;;;;;;;;;-2.11;100.00;100152.75;6214729;23;19916;-76
2023/12/01 04:28:42;;;;;;;;;;;;;;;-2.11;100.00;100153.56;6213497;23;19920;-76
2023/12/01 04:31:08;;;;;;;;;;;;;;;-2.11;100.00;100161.47;6215038;23;20236;-76
2023/12/01 04:33:33;;;;;;;;;;;;;;;-2.07;100.00;100159.44;6214717;23;19912;-76
2023/12/01 04:35:58;;;;;;;;;;;;;;;-2.09;100.00;100159.53;6213657;23;19912;-76
2023/12/01 04:38:24;;;;;;;;;;;;;;;-2.05;100.00;100163.59;6214774;23;19911;-75
2023/12/01 04:40:50;;;;;;;;;;;;;;;-2.10;100.00;100160.50;6215011;23;19915;-76
2023/12/01 04:43:15;;;;;;;;;;;;;;;-2.10;100.00;100171.06;6213452;23;19922;-76
2023/12/01 04:45:40;;;;;;;;;;;;;;;-2.09;100.00;100162.19;6214591;23;19955;-76
2023/12/01 04:48:08;;;;;;;;;;;;;;;-2.07;100.00;100168.16;6216677;23;19912;-76
2023/12/01 04:50:33;;;;;;;;;;;;;;;-2.06;100.00;100174.28;6216249;23;19919;-76
2023/12/01 04:53:00;;;;;;;;;;;;;;;-2.06;100.00;100167.19;6216511;23;19915;-76
2023/12/01 04:55:26;;;;;;;;;;;;;;;-2.08;100.00;100166.50;6217090;23;19916;-75
2023/12/01 04:57:51;;;;;;;;;;;;;;;-2.04;100.00;100172.34;6215206;23;19907;-75
2023/12/01 05:00:20;;;;;;;;;;;;;;;-2.04;100.00;100175.00;6216468;23;20178;-76
2023/12/01 05:02:52;;;;;;;;;;;;;;;-2.05;100.00;100170.69;6217152;23;19995;-76
2023/12/01 05:05:21;;;;;;;;;;;;;;;-2.05;100.00;100175.97;6215781;23;19916;-76
2023/12/01 05:07:50;;;;;;;;;;;;;;;-2.07;100.00;100180.53;6217219;23;19918;-75
2023/12/01 05:10:19;;;;;;;;;;;;;;;-2.04;100.00;100180.28;6216779;23;19990;-75
2023/12/01 05:12:45;;;;;;;;;;;;;;;-2.01;100.00;100185.25;6215764;23;19912;-76
2023/12/01 05:15:15;;;;;;;;;;;;;;;-2.05;100.00;100183.88;6216819;23;20254;-76
2023/12/01 05:17:47;;;;;;;;;;;;;;;-2.06;100.00;100195.38;6217110;23;19918;-76
2023/12/01 05:20:15;;;;;;;;;;;;;;;-2.05;100.00;100203.16;6216119;23;20006;-76
2023/12/01 05:22:43;;;;;;;;;;;;;;;-2.06;100.00;100195.38;6217375;23;19995;-76
2023/12/01 05:25:13;;;;;;;;;;;;;;;-2.10;100.00;100200.06;6216620;23;19935;-76
2023/12/01 05:27:39;;;;;;;;;;;;;;;-2.09;100.00;100201.75;6218158;23;19985;-76
2023/12/01 05:30:06;;;;;;;;;;;;;;;-2.05;100.00;100208.44;6217994;23;19915;-76
2023/12/01 05:32:31;;;;;;;;;;;;;;;-2.07;100.00;100205.09;6219560;23;19915;-76
2023/12/01 05:34:56;;;;;;;;;;;;;;;-2.08;100.00;100199.97;6219292;23;19911;-76
2023/12/01 05:37:21;;;;;;;;;;;;;;;-2.10;100.00;100201.88;6218372;23;19962;-77
2023/12/01 05:39:47;;;;;;;;;;;;;;;-2.10;100.00;100207.16;6216721;23;19994;-76
2023/12/01 05:42:12;;;;;;;;;;;;;;;-2.11;100.00;100216.84;6217750;23;19962;-75
2023/12/01 05:44:37;;;;;;;;;;;;;;;-2.14;100.00;100228.50;6217589;23;19939;-76
2023/12/01 05:47:02;;;;;;;;;;;;;;;-2.09;100.00;100219.38;6219277;23;19970;-75
2023/12/01 05:49:28;;;;;;;;;;;;;;;-2.20;100.00;100228.19;6219185;23;19912;-75
2023/12/01 05:51:53;;;;;;;;;;;;;;;-2.27;100.00;100238.44;6218904;23;19912;-75
2023/12/01 05:54:18;;;;;;;;;;;;;;;-2.31;100.00;100232.59;6218740;23;19947;-75
2023/12/01 05:56:43;;;;;;;;;;;;;;;-2.33;100.00;100239.78;6216941;23;19912;-75
2023/12/01 05:59:09;;;;;;;;;;;;;;;-2.37;100.00;100242.78;6216549;23;19919;-75
2023/12/01 06:01:34;;;;;;;;;;;;;;;-2.40;100.00;100238.59;6216877;23;20372;-75
2023/12/01 06:03:59;;;;;;;;;;;;;;;-2.43;100.00;100241.50;6217138;23;20375;-74
2023/12/01 06:06:24;;;;;;;;;;;;;;;-2.48;100.00;100247.16;6216360;23;20361;-75
2023/12/01 06:08:49;;;;;;;;;;;;;;;-2.48;100.00;100251.59;6216866;23;20497;-75
2023/12/01 06:11:15;;;;;;;;;;;;;;;-2.52;100.00;100250.19;6216897;23;19995;-76
2023/12/01 06:13:40;;;;;;;;;;;;;;;-2.57;100.00;100260.25;6216419;23;19948;-75
2023/12/01 06:16:06;;;;;;;;;;;;;;;-2.63;100.00;100262.44;6192618;23;19935;-75
2023/12/01 06:18:34;;;;;;;;;;;;;;;-2.66;100.00;100275.88;6222501;23;19922;-76
2023/12/01 06:21:00;;;;;;;;;;;;;;;-2.67;100.00;100274.19;6216646;23;19912;-75
2023/12/01 06:23:28;;;;;;;;;;;;;;;-2.63;100.00;100275.59;6218039;23;20248;-75
2023/12/01 06:25:53;;;;;;;;;;;;;;;-2.68;100.00;100277.78;6217137;23;19970;-75
2023/12/01 06:28:27;;;;;;;;;;;;;;;-2.65;100.00;100277.56;6216463;23;19912;-75
2023/12/01 06:30:53;;;;;;;;;;;;;;;-2.70;100.00;100277.06;6218305;23;19994;-75
2023/12/01 06:33:18;;;;;;;;;;;;;;;-2.74;100.00;100273.84;6215884;23;19920;-75
2023/12/01 06:35:44;;;;;;;;;;;;;;;-2.74;100.00;100273.00;6217454;23;19916;-75
2023/12/01 06:38:09;;;;;;;;;;;;;;;-2.70;100.00;100281.50;6217260;23;19911;-75
2023/12/01 06:40:34;;;;;;;;;;;;;;;-2.75;100.00;100284.50;6217331;23;19991;-76
2023/12/01 06:43:02;;;;;;;;;;;;;;;-2.78;100.00;100293.50;6219514;23;19912;-75
2023/12/01 06:50:30;;;;;;;;;;;;;;;-2.84;100.00;100288.72;6211703;23;19946;-77
2023/12/01 06:52:58;;;;;;;;;;;;;;;-2.88;100.00;100294.38;6217091;23;19912;-77
2023/12/01 06:55:24;;;;;;;;;;;;;;;-2.89;100.00;100296.16;6216020;23;19919;-77
2023/12/01 06:57:52;;;;;;;;;;;;;;;-2.88;100.00;100303.09;6219545;23;20240;-76
2023/12/01 07:03:09;;;;;;;;;;;;;;;-2.96;100.00;100306.34;6217317;23;19963;-76
2023/12/01 07:05:35;;;;;;;;;;;;;;;-2.94;100.00;100309.69;6217905;23;19978;-77
2023/12/01 07:08:01;;;;;;;;;;;;;;;-3.01;100.00;100316.44;6215229;23;20331;-77
2023/12/01 07:10:28;;;;;;;;;;;;;;;-2.98;100.00;100318.78;6214810;23;19966;-78
2023/12/01 07:12:56;;;;;;;;;;;;;;;-2.95;100.00;100317.75;6215220;23;19962;-78
2023/12/01 07:15:22;;;;;;;;;;;;;;;-2.95;100.00;100326.47;6214512;23;19939;-78
2023/12/01 07:17:51;;;;;;;;;;;;;;;-2.94;100.00;100325.50;6212184;23;20309;-77
2023/12/01 07:20:18;;;;;;;;;;;;;;;-2.97;100.00;100324.91;6213037;23;19923;-77
2023/12/01 07:22:43;;;;;;;;;;;;;;;-2.95;100.00;100323.81;6214136;23;20470;-77
2023/12/01 07:25:21;;;;;;;;;;;;;;;-2.93;100.00;100331.63;6212635;23;20234;-78
2023/12/01 07:27:46;;;;;;;;;;;;;;;-2.96;100.00;100337.94;6214083;23;19916;-78
2023/12/01 07:30:12;;;;;;;;;;;;;;;-2.99;100.00;100337.38;6210144;23;19988;-77
2023/12/01 07:32:38;;;;;;;;;;;;;;;-3.00;100.00;100336.50;6185251;23;19916;-77
2023/12/01 07:35:03;;;;;;;;;;;;;;;-3.05;100.00;100351.88;6212205;23;20456;-78
2023/12/01 07:37:29;;;;;;;;;;;;;;;-3.04;100.00;100345.63;6213269;23;19935;-76
2023/12/01 07:39:55;;;;;;;;;;;;;;;-3.12;100.00;100348.03;6210529;23;19912;-77
2023/12/01 07:42:24;;;;;;;;;;;;;;;-3.15;100.00;100353.53;6212140;23;19911;-77
2023/12/01 07:44:49;;;;;;;;;;;;;;;-3.13;100.00;100352.47;6213071;23;19928;-80
2023/12/01 07:47:16;;;;;;;;;;;;;;;-3.13;100.00;100352.47;6211155;23;19916;-80
2023/12/01 07:49:41;;;;;;;;;;;;;;;-3.11;100.00;100354.97;6212379;23;19974;-80
2023/12/01 07:52:06;;;;;;;;;;;;;;;-3.11;100.00;100360.22;6229273;23;19927;-80
2023/12/01 07:54:32;;;;;;;;;;;;;;;-3.11;100.00;100355.81;6212788;23;19920;-80
2023/12/01 07:56:57;;;;;;;;;;;;;;;-3.10;100.00;100356.66;6207883;22;19928;-80
2023/12/01 07:59:23;;;;;;;;;;;;;;;-3.07;100.00;100351.97;6212542;23;20086;-80
2023/12/01 08:01:48;;;;;;;;;;;;;;;-3.08;100.00;100357.38;6213210;23;19935;-80
2023/12/01 08:04:13;;;;;;;;;;;;;;;-3.16;100.00;100357.97;6212425;23;20158;-80
2023/12/01 08:06:41;;;;;;;;;;;;;;;-3.09;100.00;100360.97;6211512;23;19914;-80
2023/12/01 08:09:07;;;;;;;;;;;;;;;-3.15;100.00;100353.53;6212739;23;19993;-80
2023/12/01 08:11:34;;;;;;;;;;;;;;;-3.11;100.00;100355.81;6212948;23;19916;-80
2023/12/01 08:14:03;;;;;;;;;;;;;;;-3.12;100.00;100362.03;6209511;23;19920;-79
2023/12/01 08:16:53;;;;;;;;;;;;;;;-3.14;100.00;100363.97;6212536;23;19994;-79
2023/12/01 08:19:21;;;;;;;;;;;;;;;-3.10;100.00;100362.75;6211227;23;19919;-79
2023/12/01 08:21:49;;;;;;;;;;;;;;;-3.10;100.00;100361.91;6211328;23;20396;-79
2023/12/01 08:24:17;;;;;;;;;;;;;;;-3.05;100.00;100357.13;6212249;23;19978;-80
2023/12/01 08:26:42;;;;;;;;;;;;;;;-3.09;100.00;100360.97;6212868;23;19927;-78
2023/12/01 08:29:07;;;;;;;;;;;;;;;-3.05;100.00;100351.88;6211715;23;19915;-78
2023/12/01 08:31:33;;;;;;;;;;;;;;;-2.99;100.00;100356.63;6212806;23;19970;-78
2023/12/01 08:33:58;;;;;;;;;;;;;;;-2.99;100.00;100354.00;6211985;23;19990;-79
2023/12/01 08:36:24;;;;;;;;;;;;;;;-3.02;100.00;100364.78;6212254;23;19911;-78
2023/12/01 08:38:50;;;;;;;;;;;;;;;-2.94;100.00;100358.91;6213337;23;19912;-81
2023/12/01 08:41:15;;;;;;;;;;;;;;;-2.98;100.00;100355.66;6212292;23;20233;-78
2023/12/01 08:43:40;;;;;;;;;;;;;;;-2.95;100.00;100360.69;6212542;23;19943;-78
2023/12/01 08:46:05;;;;;;;;;;;;;;;-2.97;100.00;100357.34;6212886;23;19915;-78
2023/12/01 08:48:31;;;;;;;;;;;;;;;-2.92;100.00;100368.38;6212334;23;19997;-79
2023/12/01 08:50:56;;;;;;;;;;;;;;;-2.86;100.00;100360.94;6211857;23;20262;-79
2023/12/01 08:53:28;;;;;;;;;;;;;;;-2.91;100.00;100370.03;6212850;23;20119;-79
2023/12/01 08:55:53;;;;;;;;;;;;;;;-2.81;100.00;100370.16;6213743;23;20290;-79
2023/12/01 08:58:18;;;;;;;;;;;;;;;-2.75;100.00;100371.44;6216002;23;19912;-79
2023/12/01 09:00:46;;;;;;;;;;;;;;;-2.79;100.00;100372.66;6215694;23;19962;-79
2023/12/01 09:03:11;;;;;;;;;;;;;;;-2.72;100.00;100381.75;6211552;23;19998;-80
2023/12/01 09:05:37;;;;;;;;;;;;;;;-2.63;100.00;100381.00;6214736;23;19919;-80
2023/12/01 09:08:05;;;;;;;;;;;;;;;-2.57;100.00;100384.97;6215007;23;19952;-81
2023/12/01 09:10:35;;;;;;;;;;;;;;;-2.61;100.00;100383.53;6218425;23;19969;-79
2023/12/01 09:13:00;;;;;;;;;;;;;;;-2.65;100.00;100379.47;6221457;23;19927;-78
2023/12/01 09:15:27;;;;;;;;;;;;;;;-2.62;100.00;100387.13;6214848;23;19915;-80
2023/12/01 09:17:52;;;;;;;;;;;;;;;-2.59;100.00;100386.88;6214926;23;20221;-80
2023/12/01 09:20:19;;;;;;;;;;;;;;;-2.52;100.00;100389.88;6188817;23;19920;-81
2023/12/01 09:22:44;;;;;;;;;;;;;;;-2.50;100.00;100375.59;6215216;23;19923;-80
2023/12/01 09:25:09;;;;;;;;;;;;;;;-2.44;100.00;100385.66;6213875;23;19918;-81
2023/12/01 09:27:39;;;;;;;;;;;;;;;-2.56;100.00;100391.06;6215611;23;19923;-80
2023/12/01 09:30:07;;;;;;;;;;;;;;;-2.50;100.00;100387.94;6213647;23;19912;-82
2023/12/01 09:33:00;;;;;;;;;;;;;;;-2.48;100.00;100388.66;6227436;23;19947;-81
2023/12/01 09:40:29;;;;;;;;;;;;;;;-2.49;100.00;100389.63;6153713;23;19983;-80
2023/12/01 09:42:54;;;;;;;;;;;;;;;-2.40;100.00;100402.03;6128415;23;20511;-80
2023/12/01 09:48:27;;;;;;;;;;;;;;;-2.46;100.00;100418.34;6154114;23;19999;-78
2023/12/01 09:50:52;;;;;;;;;;;;;;;-2.47;100.00;100421.97;6128080;23;19923;-76
2023/12/01 09:53:18;;;;;;;;;;;;;;;-2.57;100.00;100424.50;6153569;23;19913;-76
2023/12/01 09:55:56;;;;;;;;;;;;;;;-2.68;100.00;100416.59;6152564;23;19916;-75
2023/12/01 09:58:22;;;;;;;;;;;;;;;-2.61;100.00;100423.06;6159230;23;19919;-76
2023/12/01 10:00:47;;;;;;;;;;;;;;;-2.61;100.00;100421.25;6137545;23;19913;-77
2023/12/01 10:03:12;;;;;;;;;;;;;;;-2.65;100.00;100425.09;6158387;23;20280;-77
2023/12/01 10:05:37;;;;;;;;;;;;;;;-2.69;100.00;100428.94;6158946;23;19909;-77
2023/12/01 10:08:04;;;;;;;;;;;;;;;-2.70;100.00;100431.69;6156061;23;20523;-76
2023/12/01 10:10:30;;;;;;;;;;;;;;;-2.76;100.00;100428.59;6154001;23;19932;-75
2023/12/01 10:13:04;;;;;;;;;;;;;;;-2.76;100.00;100433.00;6127592;23;19987;-77
2023/12/01 10:15:29;;;;;;;;;;;;;;;-2.68;100.00;100435.88;6154018;23;19920;-77
2023/12/01 10:17:55;;;;;;;;;;;;;;;-2.67;100.00;100429.66;6127735;23;19916;-77
2023/12/01 10:20:21;;;;;;;;;;;;;;;-2.58;100.00;100433.38;6127496;23;19920;-77
2023/12/01 10:22:49;;;;;;;;;;;;;;;-2.57;100.00;100427.13;6153702;23;20211;-77
2023/12/01 10:25:14;;;;;;;;;;;;;;;-2.56;100.00;100439.34;6128674;23;19923;-77
2023/12/01 10:27:48;;;;;;;;;;;;;;;-2.60;100.00;100444.00;6153215;23;19913;-77
2023/12/01 10:30:14;;;;;;;;;;;;;;;-2.69;100.00;100431.56;6133345;23;19916;-78
2023/12/01 10:32:40;;;;;;;;;;;;;;;-2.67;100.00;100426.16;6156950;23;20295;-77
2023/12/01 10:35:05;;;;;;;;;;;;;;;-2.69;100.00;100421.03;6156220;23;19920;-75
2023/12/01 10:37:31;;;;;;;;;;;;;;;-2.68;100.00;100427.13;6155849;23;19913;-77
2023/12/01 10:39:56;;;;;;;;;;;;;;;-2.71;100.00;100430.00;6172846;23;19991;-77
2023/12/01 10:42:21;;;;;;;;;;;;;;;-2.74;100.00;100437.19;6210823;23;19912;-77
2023/12/01 10:44:49;;;;;;;;;;;;;;;-2.72;100.00;100434.44;6212263;23;20496;-77
2023/12/01 10:47:15;;;;;;;;;;;;;;;-2.93;100.00;100429.91;6212957;23;19912;-77
2023/12/01 10:49:40;;;;;;;;;;;;;;;-2.79;100.00;100428.81;6181477;23;19966;-75
2023/12/01 10:52:06;;;;;;;;;;;;;;;-2.76;100.00;100422.47;6206237;23;19966;-75
2023/12/01 10:54:31;;;;;;;;;;;;;;;-2.76;100.00;100420.69;6213285;23;19942;-79
2023/12/01 10:57:16;;;;;;;;;;;;;;;-2.65;100.00;100418.97;6211492;23;19986;-75
2023/12/01 10:59:43;;;;;;;;;;;;;;;-2.55;99.46;100419.09;6202627;23;20321;-75
2023/12/01 11:02:08;;;;;;;;;;;;;;;-2.62;99.03;100416.13;6215459;23;19916;-76
2023/12/01 11:04:44;;;;;;;;;;;;;;;-2.59;99.18;100414.06;6214014;23;20009;-75
2023/12/01 11:07:28;;;;;;;;;;;;;;;-2.64;100.00;100410.13;6214064;23;19932;-76
2023/12/01 11:10:12;;;;;;;;;;;;;;;-2.55;100.00;100422.56;6203296;23;19990;-75
2023/12/01 11:12:56;;;;;;;;;;;;;;;-2.52;100.00;100413.59;6200617;23;19937;-75
2023/12/01 11:15:22;;;;;;;;;;;;;;;-2.54;100.00;100412.88;6213468;23;20368;-75
2023/12/01 11:17:49;;;;;;;;;;;;;;;-2.52;100.00;100413.59;6181284;23;20326;-75
2023/12/01 11:20:31;;;;;;;;;;;;;;;-2.47;100.00;100419.34;6182273;23;19936;-75
2023/12/01 11:23:03;;;;;;;;;;;;;;;-2.37;100.00;100414.97;6212634;23;19990;-75
2023/12/01 11:25:43;;;;;;;;;;;;;;;-2.44;100.00;100413.78;6211211;23;19912;-75
2023/12/01 11:31:09;;;;;;;;;;;;;;;-2.39;100.00;100416.91;6198954;23;19919;-75
2023/12/01 11:33:44;;;;;;;;;;;;;;;-2.54;100.00;100410.22;6212001;23;19919;-75
2023/12/01 11:36:26;;;;;;;;;;;;;;;-2.33;100.00;100419.06;6213511;23;19916;-75
2023/12/01 11:41:40;;;;;;;;;;;;;;;-2.37;100.00;100417.63;6211967;23;20325;-75
2023/12/01 11:44:09;;;;;;;;;;;;;;;-2.37;100.00;100417.63;6213199;23;19912;-77
2023/12/01 11:46:35;;;;;;;;;;;;;;;-2.25;100.00;100417.56;6211446;23;20314;-77
2023/12/01 11:49:00;;;;;;;;;;;;;;;-2.17;100.00;100415.16;6211057;23;19991;-77
2023/12/01 11:51:33;;;;;;;;;;;;;;;-2.20;100.00;100418.06;6241188;23;20324;-77
2023/12/01 11:54:13;;;;;;;;;;;;;;;-2.00;100.00;100417.25;6242252;23;19911;-76
2023/12/01 11:56:51;;;;;;;;;;;;;;;-1.96;100.00;100422.28;6217682;23;19973;-76
2023/12/01 11:59:19;;;;;;;;;;;;;;;-1.86;100.00;100420.56;6242718;23;19986;-76
2023/12/01 12:01:55;;;;;;;;;;;;;;;-2.10;100.00;100416.31;6242677;23;19923;-77
2023/12/01 12:04:24;;;;;;;;;;;;;;;-2.24;99.46;100422.75;6243542;23;19912;-76
2023/12/01 12:06:49;;;;;;;;;;;;;;;-2.32;99.04;100420.72;6242356;23;19911;-77
2023/12/01 12:09:17;;;;;;;;;;;;;;;-2.36;99.12;100427.19;6243255;23;19989;-78
2023/12/01 12:11:52;;;;;;;;;;;;;;;-2.38;98.86;100421.22;6240308;23;19919;-78
2023/12/01 12:14:20;;;;;;;;;;;;;;;-2.38;99.65;100429.13;6236865;23;20343;-78
2023/12/01 12:17:00;;;;;;;;;;;;;;;-2.40;99.55;100425.75;6216596;23;19961;-78
2023/12/01 12:19:26;;;;;;;;;;;;;;;-2.34;99.91;100422.66;6243361;23;19966;-78
2023/12/01 12:21:57;;;;;;;;;;;;;;;-2.28;98.97;100422.13;6242585;23;19919;-78
2023/12/01 12:58:30;;;;;;;;;;;;;;;-2.47;98.07;100435.16;6245119;23;19962;-78
2023/12/01 13:00:55;;;;;;;;;;;;;;;-2.51;98.77;100436.34;6244318;23;19996;-78
2023/12/01 13:03:33;;;;;;;;;;;;;;;-2.53;97.64;100439.09;6217633;23;20042;-78
2023/12/01 13:05:58;;;;;;;;;;;;;;;-2.52;97.54;100439.94;6246808;23;19923;-78
2023/12/01 13:08:31;;;;;;;;;;;;;;;-2.48;97.42;100446.66;6247957;23;19912;-79
2023/12/01 13:10:56;;;;;;;;;;;;;;;-2.44;96.98;100442.78;6238016;23;19912;-78
2023/12/01 13:13:22;;;;;;;;;;;;;;;-2.47;97.25;100446.50;6220377;23;19916;-78
2023/12/01 13:15:47;;;;;;;;;;;;;;;-2.45;98.21;100441.09;6248205;23;19911;-78
2023/12/01 13:18:14;;;;;;;;;;;;;;;-2.41;99.11;100439.91;6248293;23;19919;-78
2023/12/01 13:20:42;;;;;;;;;;;;;;;-2.36;98.58;100434.25;6249294;23;19947;-78
2023/12/01 13:23:08;;;;;;;;;;;;;;;-2.44;97.55;100442.78;6247971;23;19916;-78
2023/12/01 13:25:36;;;;;;;;;;;;;;;-2.35;97.53;100447.34;6251162;23;20001;-78
2023/12/01 13:28:02;;;;;;;;;;;;;;;-2.46;97.79;100444.69;6252165;23;19963;-78
2023/12/01 13:30:27;;;;;;;;;;;;;;;-2.47;97.37;100443.06;6249156;23;19978;-78
2023/12/01 13:32:53;;;;;;;;;;;;;;;-2.54;96.98;100453.22;6245105;23;20325;-78
2023/12/01 13:35:18;;;;;;;;;;;;;;;-2.54;97.95;100452.41;6246155;23;19943;-76
2023/12/01 13:37:43;;;;;;;;;;;;;;;-2.63;98.15;100441.59;6243733;23;19918;-76
2023/12/01 13:40:09;;;;;;;;;;;;;;;-2.67;98.00;100437.56;6245523;23;19915;-76